TAF KBGR
AMD KBGR 082228Z 0822/0918 03008KT 2SM -SN BR OVC025 TEMPO 0822/0824 1SM -SN BR OVC015 FM090000 03008KT 2SM -SN OVC025 FM090300 02008G15KT 3/4SM -SN OVC025 FM091400 35006KT P6SM VCSH BKN025=
METAR KBGR
WC KBGR
WS KBGR
WV KBGR